Flight Track Log - Related Links

Times and Time Zones

All times are in EDT time to prevent confusion due to time zone crossing. See the UAL656 flight status page for this flight to view local times or setup timezone preferences in your user account.

Time Position Orientation Groundspeed Altitude Reporting Facility
EDT Latitude Longitude Course Direction KTS MPH feet Rate Location/Type
Tue 08:50:14 AM 30.0072 -90.2456 257° West 152 175 800  Level Houston Center
Tue 08:50:50 AM 30.0300 -90.2372 18° North 145 167 1,800 2,362 Climbing Houston Center
Tue 08:52:21 AM 30.1022 -90.2547 348° North 220 253 5,800 2,803 Climbing Houston Center
Tue 08:53:00 AM 29.8486 -90.5923 244° Southwest  Level FlightAware Approximate
Tue 08:53:22 AM 30.0717 -90.3342 246° West 271 312 8,900  Level Houston Center
Tue 08:54:00 AM 29.8167 -90.6792 270° West  Level FlightAware Approximate
Tue 08:54:24 AM 30.0311 -90.4136 239° Southwest 287 330 11,700  Level Houston Center
Tue 08:55:00 AM 29.8054 -90.7732 257° West  Level FlightAware Approximate
Tue 08:55:26 AM 29.9886 -90.5050 242° Southwest 319 367 14,900  Level Houston Center
Tue 08:56:28 AM 29.9458 -90.5953 241° Southwest 322 371 17,800 2,855 Climbing Houston Center
Tue 08:57:30 AM 29.8956 -90.7100 243° Southwest 334 384 20,800 2,488 Climbing Houston Center
Tue 08:58:31 AM 29.8683 -90.8189 254° West 356 410 22,900 2,098 Climbing Houston Center
Tue 08:59:33 AM 29.8425 -90.9292 255° West 357 411 25,100 1,984 Climbing Houston Center
Tue 09:00:35 AM 29.8136 -91.0414 254° West 365 420 27,000 1,839 Climbing Houston Center
Tue 09:01:37 AM 29.7850 -91.1583 254° West 378 435 28,900 1,984 Climbing Houston Center
Tue 09:02:39 AM 29.7567 -91.2750 254° West 379 436 31,100 1,500 Climbing Houston Center
Tue 09:03:41 AM 29.7222 -91.4144 254° West 378 435 32,000 387 Climbing Houston Center
Tue 09:04:43 AM 29.6922 -91.5325 254° West 384 442 31,900  Descending Houston Center
Tue 09:05:44 AM 29.6625 -91.6500 254° West 383 441 32,000  Climbing Houston Center
Tue 09:06:46 AM 29.6319 -91.7750 254° West 383 441 31,900 -48 Descending Houston Center
Tue 09:07:48 AM 29.6008 -91.8939 253° West 387 445 31,900 48 Level Houston Center
Tue 09:08:50 AM 29.5706 -92.0128 254° West 389 448 32,000 49 Climbing Houston Center
Tue 09:09:51 AM 29.5397 -92.1306 253° West 386 444 32,000 -49 Level Houston Center
Tue 09:10:53 AM 29.5106 -92.2497 254° West 387 445 31,900 -48 Descending Houston Center
Tue 09:11:55 AM 29.4794 -92.3675 253° West 386 444 31,900 48 Level Houston Center
Tue 09:12:57 AM 29.4583 -92.5153 261° West 393 452 32,000 48 Climbing Houston Center
Tue 09:13:59 AM 29.4644 -92.6375 273° West 387 445 32,000 -48 Level Houston Center
Tue 09:15:01 AM 29.4708 -92.7622 273° West 390 449 31,900 -49 Descending Houston Center
Tue 09:16:02 AM 29.4772 -92.8858 273° West 388 447 31,900  Level Houston Center
Tue 09:17:04 AM 29.4819 -93.0103 273° West 390 449 31,900 48 Level Houston Center
Tue 09:18:06 AM 29.4872 -93.1347 273° West 391 450 32,000 -774 Climbing Houston Center
Tue 09:19:08 AM 29.4922 -93.2592 273° West 390 449 30,300 -1,935 Descending Houston Center
Tue 09:20:10 AM 29.4967 -93.3850 272° West 392 451 28,000 -2,323 Descending Houston Center
Tue 09:21:12 AM 29.5036 -93.5303 273° West 382 440 25,500 -1,951 Descending Houston Center
Tue 09:22:13 AM 29.5075 -93.6481 272° West 372 428 24,000 -976 Descending Houston Center
Tue 09:23:15 AM 29.5119 -93.7711 272° West 380 437 23,500 -1,839 Descending Houston Center
Tue 09:24:17 AM 29.5175 -93.8864 273° West 367 422 20,200 -2,565 Descending Houston Center
Tue 09:25:19 AM 29.5211 -93.9969 272° West 352 405 18,200 -1,742 Descending Houston Center
Tue 09:26:21 AM 29.5247 -94.1083 272° West 348 400 16,600 -1,714 Descending Houston Center
Tue 09:27:04 AM 29.5267 -94.2067 271° West 340 391 15,200 -1,818 Descending Houston Center
Tue 09:28:00 AM 29.5297 -94.3000 272° West 336 387 13,600 -1,231 Descending Houston Center
Tue 09:29:01 AM 29.5569 -94.4022 287° West 306 352 12,800 -738 Descending Houston Center
Tue 09:30:02 AM 29.6000 -94.4783 303° West 270 311 12,100 -1,033 Descending Houston Center
Tue 09:31:03 AM 29.6519 -94.5367 316° Northwest 266 306 10,700 -1,131 Descending Houston Center
Tue 09:32:04 AM 29.7022 -94.5978 313° West 246 283 9,800 -984 Descending Houston Center
Tue 09:33:05 AM 29.7433 -94.6550 310° West 231 266 8,700 -1,031 Descending Houston Center
Tue 09:34:12 AM 29.7772 -94.7228 300° West 221 254 7,600 -1,031 Descending Houston Center
Tue 09:35:13 AM 29.8086 -94.7864 300° West 216 249 6,500 -1,082 Descending Houston Center
Tue 09:36:14 AM 29.8375 -94.8478 298° West 214 246 5,400 -1,078 Descending Houston Center
Tue 09:37:21 AM 29.8714 -94.9158 300° West 213 245 4,200 -930 Descending Houston Center
Tue 09:38:23 AM 29.8978 -94.9728 298° West 202 232 3,400 -780 Descending Houston Center
Tue 09:39:24 AM 29.9264 -95.0294 300° West 199 229 2,600 -724 Descending Houston Center
Tue 09:40:19 AM 29.9497 -95.0772 299° West 190 219 2,000 -655 Descending Houston Center

Login

Don't have an account? Register now (free) for customized features, flight alerts, and more!